Time;durP1;ratioP1;P1;durP2;ratioP2;P2;SDS_P1;SDS_P2;PMS_P1;PMS_P2;Temp;Humidity;BMP_temperature;BMP_pressure;BME280_temperature;BME280_humidity;BME280_pressure;Samples;Min_cycle;Max_cycle;Signal;HPM_P1;HPM_P2
2022/02/24 00:00:21;;;;;;;102.95;27.63;;;11.40;90.30;;;;;;5021910;28;20108;-62
2022/02/24 00:02:47;;;;;;;136.48;27.65;;;11.40;90.20;;;;;;4988857;28;20038;-62
2022/02/24 00:05:13;;;;;;;127.32;25.67;;;11.30;90.20;;;;;;5021965;28;20117;-61
2022/02/24 00:08:03;;;;;;;125.32;26.33;;;11.30;90.20;;;;;;5020754;28;20029;-61
2022/02/24 00:10:29;;;;;;;120.07;24.13;;;11.30;90.30;;;;;;5020457;28;20040;-60
2022/02/24 00:12:54;;;;;;;119.43;24.77;;;11.20;90.20;;;;;;5023712;28;20029;-62
2022/02/24 00:15:20;;;;;;;106.95;23.77;;;11.20;90.20;;;;;;5022183;28;20156;-62
2022/02/24 00:17:45;;;;;;;109.93;26.00;;;11.20;90.30;;;;;;5020840;28;20037;-60
2022/02/24 00:20:11;;;;;;;109.68;25.02;;;11.20;90.30;;;;;;5024326;28;20033;-60
2022/02/24 00:22:37;;;;;;;112.32;25.60;;;11.10;90.40;;;;;;5022140;28;20564;-58
2022/02/24 00:25:03;;;;;;;118.47;25.88;;;11.10;90.40;;;;;;5019732;28;20116;-61
2022/02/24 00:27:28;;;;;;;92.93;24.58;;;11.10;90.40;;;;;;5005599;28;20422;-60
2022/02/24 00:29:54;;;;;;;112.88;26.30;;;11.00;90.30;;;;;;5021306;28;20080;-60
2022/02/24 00:32:19;;;;;;;92.25;24.38;;;11.00;90.40;;;;;;5019382;28;20140;-61
2022/02/24 00:34:45;;;;;;;89.50;23.13;;;11.00;90.40;;;;;;5020139;28;20060;-61
2022/02/24 00:37:10;;;;;;;89.00;23.40;;;11.00;90.30;;;;;;5021847;28;20047;-62
2022/02/24 00:39:36;;;;;;;88.57;22.60;;;11.00;90.40;;;;;;5022666;28;20182;-62
2022/02/24 00:42:02;;;;;;;86.60;20.45;;;10.90;90.40;;;;;;5021777;28;20061;-60
2022/02/24 00:44:27;;;;;;;92.15;22.90;;;10.90;90.30;;;;;;5021759;28;20040;-60
2022/02/24 00:46:53;;;;;;;91.68;21.88;;;10.90;90.40;;;;;;5022207;28;20029;-60
2022/02/24 00:49:20;;;;;;;76.05;22.67;;;10.90;90.40;;;;;;5022039;28;20029;-61
2022/02/24 00:51:46;;;;;;;79.80;22.20;;;10.90;90.40;;;;;;5019644;28;20491;-61
2022/02/24 00:54:13;;;;;;;72.53;23.13;;;10.90;90.40;;;;;;5021145;28;20052;-60
2022/02/24 00:56:39;;;;;;;80.85;23.35;;;10.80;90.40;;;;;;5022250;28;20025;-61
2022/02/24 00:59:05;;;;;;;84.40;21.38;;;10.80;90.40;;;;;;5020234;28;20022;-61
2022/02/24 01:01:30;;;;;;;84.53;22.35;;;10.80;90.40;;;;;;5019488;28;20461;-61
2022/02/24 01:03:55;;;;;;;84.90;21.55;;;10.80;90.40;;;;;;5022543;28;20034;-60
2022/02/24 01:06:21;;;;;;;62.22;18.50;;;10.70;90.40;;;;;;5021888;28;20021;-60
2022/02/24 01:08:47;;;;;;;85.57;20.98;;;10.70;90.40;;;;;;5022393;28;20022;-60
2022/02/24 01:11:12;;;;;;;63.67;18.02;;;10.70;90.40;;;;;;5019338;28;20029;-60
2022/02/24 01:13:38;;;;;;;75.75;19.85;;;10.70;90.40;;;;;;5021146;28;20045;-60
2022/02/24 01:16:03;;;;;;;56.75;18.15;;;10.70;90.50;;;;;;5021197;28;20520;-61
2022/02/24 01:18:29;;;;;;;66.88;19.88;;;10.60;90.60;;;;;;5022435;28;20064;-59
2022/02/24 01:20:55;;;;;;;67.35;20.80;;;10.70;90.70;;;;;;5019971;28;20063;-62
2022/02/24 01:23:21;;;;;;;68.78;17.88;;;10.60;90.70;;;;;;5021760;28;20062;-61
2022/02/24 01:25:46;;;;;;;56.25;18.00;;;10.60;90.70;;;;;;5021249;28;20099;-61
2022/02/24 01:28:12;;;;;;;68.70;21.88;;;10.60;90.70;;;;;;5020788;28;20124;-62
2022/02/24 01:30:37;;;;;;;62.35;20.30;;;10.60;90.70;;;;;;5020914;28;20492;-60
2022/02/24 01:33:03;;;;;;;60.63;19.60;;;10.60;90.70;;;;;;5003290;28;20025;-61
2022/02/24 01:35:29;;;;;;;62.97;19.33;;;10.50;90.80;;;;;;5021137;28;20026;-59
2022/02/24 01:37:54;;;;;;;59.33;18.60;;;10.50;90.80;;;;;;5022338;28;20084;-62
2022/02/24 01:40:20;;;;;;;62.13;17.63;;;10.60;90.90;;;;;;5023156;28;20629;-62
2022/02/24 01:42:45;;;;;;;68.15;18.48;;;10.50;90.90;;;;;;5006920;28;20034;-60
2022/02/24 01:45:11;;;;;;;57.47;18.42;;;10.50;90.80;;;;;;5024953;28;20109;-61
2022/02/24 01:47:36;;;;;;;61.47;17.85;;;10.50;90.80;;;;;;5024996;28;20064;-61
2022/02/24 01:50:03;;;;;;;52.83;18.27;;;10.50;90.80;;;;;;5023082;28;20021;-61
2022/02/24 01:52:29;;;;;;;50.22;17.83;;;10.40;90.80;;;;;;5020018;28;20129;-62
2022/02/24 01:54:54;;;;;;;49.67;16.35;;;10.40;90.80;;;;;;5006650;28;20120;-59
2022/02/24 01:57:21;;;;;;;61.83;17.98;;;10.40;90.90;;;;;;5022034;28;21519;-59
2022/02/24 01:59:46;;;;;;;50.15;16.33;;;10.40;90.80;;;;;;5023626;28;20028;-61
2022/02/24 02:02:14;;;;;;;65.25;17.77;;;10.40;90.80;;;;;;5021074;28;20056;-62
2022/02/24 02:04:39;;;;;;;54.25;16.58;;;10.40;90.80;;;;;;5006155;28;20075;-61
2022/02/24 02:07:05;;;;;;;60.67;17.95;;;10.30;91.10;;;;;;5021740;28;20069;-61
2022/02/24 02:09:31;;;;;;;60.03;16.88;;;10.30;90.80;;;;;;5022451;28;20495;-59
2022/02/24 02:11:56;;;;;;;47.53;16.88;;;10.30;90.90;;;;;;5022786;28;20096;-59
2022/02/24 02:14:22;;;;;;;56.38;18.38;;;10.30;90.80;;;;;;5025069;28;20062;-61
2022/02/24 02:16:49;;;;;;;46.75;17.40;;;10.20;90.80;;;;;;5021461;28;20295;-61
2022/02/24 02:19:15;;;;;;;51.60;16.27;;;10.20;90.80;;;;;;5021461;28;20535;-60
2022/02/24 02:21:40;;;;;;;55.85;17.23;;;10.20;90.80;;;;;;5020998;28;20029;-60
2022/02/24 02:24:06;;;;;;;47.47;15.05;;;10.20;90.90;;;;;;5022024;28;20067;-60
2022/02/24 02:26:32;;;;;;;50.60;15.90;;;10.20;90.80;;;;;;5007610;28;20021;-60
2022/02/24 02:28:58;;;;;;;45.60;15.63;;;10.10;90.80;;;;;;5023513;28;20030;-62
2022/02/24 02:31:24;;;;;;;43.63;16.50;;;10.10;90.80;;;;;;5018853;28;20413;-61
2022/02/24 02:33:49;;;;;;;38.72;14.88;;;10.10;90.80;;;;;;5006443;28;20029;-60
2022/02/24 02:36:15;;;;;;;37.40;15.80;;;10.10;90.80;;;;;;5023057;28;20025;-60
2022/02/24 02:38:40;;;;;;;44.53;15.75;;;10.10;90.80;;;;;;5003159;28;20044;-60
2022/02/24 02:41:06;;;;;;;41.55;14.15;;;10.00;90.80;;;;;;5022029;28;20068;-61
2022/02/24 02:43:31;;;;;;;45.33;14.25;;;10.10;90.80;;;;;;5023419;28;20376;-62
2022/02/24 02:45:57;;;;;;;37.10;13.70;;;10.00;90.80;;;;;;5023643;28;20722;-62
2022/02/24 02:48:22;;;;;;;43.55;14.35;;;10.00;90.80;;;;;;5022493;28;20017;-59
2022/02/24 02:50:48;;;;;;;37.15;12.82;;;10.00;90.80;;;;;;5022453;28;20025;-62
2022/02/24 02:53:13;;;;;;;31.73;12.52;;;9.90;90.70;;;;;;5022757;28;20891;-60
2022/02/24 02:55:39;;;;;;;44.17;13.82;;;9.90;90.70;;;;;;5020649;28;20036;-62
2022/02/24 02:58:04;;;;;;;46.60;14.45;;;9.90;90.70;;;;;;5018134;28;20045;-61
2022/02/24 03:00:30;;;;;;;32.78;13.55;;;9.90;90.70;;;;;;5023363;28;20036;-60
2022/02/24 03:02:56;;;;;;;36.72;12.25;;;9.90;90.80;;;;;;5022342;28;20038;-60
2022/02/24 03:05:22;;;;;;;44.33;13.52;;;9.90;90.80;;;;;;5022864;28;20026;-59
2022/02/24 03:07:48;;;;;;;32.83;13.02;;;9.80;90.80;;;;;;5020193;28;20108;-60
2022/02/24 03:10:14;;;;;;;35.15;13.63;;;9.80;90.80;;;;;;5021526;28;20470;-61
2022/02/24 03:12:40;;;;;;;41.75;12.52;;;9.80;90.80;;;;;;5003576;28;20033;-59
2022/02/24 03:15:09;;;;;;;37.25;12.15;;;9.70;90.80;;;;;;5022065;28;20049;-61
2022/02/24 03:17:35;;;;;;;41.88;12.88;;;9.80;90.80;;;;;;4989943;28;20563;-61
2022/02/24 03:20:00;;;;;;;34.83;13.15;;;9.70;90.70;;;;;;5006111;28;20389;-61
2022/02/24 03:22:26;;;;;;;36.15;12.70;;;9.70;90.70;;;;;;5018533;28;20033;-60
2022/02/24 03:24:51;;;;;;;35.30;12.30;;;9.70;90.70;;;;;;5019983;28;20048;-61
2022/02/24 03:27:17;;;;;;;35.47;13.25;;;9.70;90.70;;;;;;5022241;28;20025;-62
2022/02/24 03:29:42;;;;;;;37.70;12.15;;;9.60;90.60;;;;;;5023191;28;20138;-60
2022/02/24 03:32:08;;;;;;;34.17;11.55;;;9.60;90.60;;;;;;5019769;28;20607;-59
2022/02/24 03:34:34;;;;;;;29.67;11.25;;;9.60;90.60;;;;;;5021169;28;20063;-63
2022/02/24 03:36:59;;;;;;;26.48;11.70;;;9.60;90.60;;;;;;5000676;28;20513;-61
2022/02/24 03:39:25;;;;;;;30.65;10.38;;;9.50;90.60;;;;;;5020773;28;20049;-61
2022/02/24 03:41:51;;;;;;;25.00;10.63;;;9.50;90.60;;;;;;5021420;28;20882;-60
2022/02/24 03:44:17;;;;;;;35.22;10.25;;;9.50;90.60;;;;;;5021357;28;20017;-61
2022/02/24 03:46:43;;;;;;;29.08;11.23;;;9.50;90.50;;;;;;5022193;28;20017;-61
2022/02/24 03:49:08;;;;;;;25.42;9.75;;;9.50;90.50;;;;;;5003082;28;20530;-59
2022/02/24 03:51:34;;;;;;;22.75;10.05;;;9.50;90.50;;;;;;5019907;28;20045;-59
2022/02/24 03:53:59;;;;;;;25.10;9.65;;;9.50;90.40;;;;;;5020949;28;20037;-59
2022/02/24 03:56:25;;;;;;;19.38;9.07;;;9.40;90.60;;;;;;5023617;28;20025;-60
2022/02/24 03:58:50;;;;;;;26.85;9.60;;;9.40;90.40;;;;;;5018253;28;20064;-61
2022/02/24 04:01:15;;;;;;;26.38;9.73;;;9.40;90.40;;;;;;5022003;28;20470;-60
2022/02/24 04:03:41;;;;;;;22.02;8.85;;;9.40;90.50;;;;;;5019937;28;20052;-59
2022/02/24 04:06:07;;;;;;;24.77;9.55;;;9.40;90.50;;;;;;5020590;28;20029;-61
2022/02/24 04:08:32;;;;;;;24.38;8.93;;;9.40;90.50;;;;;;5019209;28;21438;-62
2022/02/24 04:10:58;;;;;;;19.40;8.80;;;9.30;90.50;;;;;;5020858;28;20136;-61
2022/02/24 04:13:23;;;;;;;22.45;8.63;;;9.30;90.60;;;;;;5021808;28;20627;-62
2022/02/24 04:15:49;;;;;;;26.83;8.38;;;9.30;90.60;;;;;;5021112;28;20103;-62
2022/02/24 04:18:15;;;;;;;19.55;8.50;;;9.30;90.60;;;;;;5004369;28;20404;-62
2022/02/24 04:20:40;;;;;;;22.38;8.73;;;9.30;90.60;;;;;;5021738;28;20033;-62
2022/02/24 04:23:06;;;;;;;16.83;8.50;;;9.30;90.60;;;;;;5018586;28;20405;-62
2022/02/24 04:25:31;;;;;;;19.90;8.38;;;9.30;90.60;;;;;;5018919;28;20542;-62
2022/02/24 04:27:57;;;;;;;22.60;8.63;;;9.30;90.60;;;;;;5020429;28;20048;-59
2022/02/24 04:30:22;;;;;;;20.50;8.50;;;9.30;90.60;;;;;;5019431;28;20049;-59
2022/02/24 04:32:48;;;;;;;31.15;8.55;;;9.30;90.60;;;;;;5020187;28;20538;-61
2022/02/24 04:35:14;;;;;;;19.50;8.68;;;9.30;90.60;;;;;;5021469;28;20029;-61
2022/02/24 04:37:40;;;;;;;23.38;8.93;;;9.20;90.60;;;;;;5018060;28;20048;-60
2022/02/24 04:40:06;;;;;;;24.25;8.27;;;9.20;90.70;;;;;;5020450;28;20042;-59
2022/02/24 04:42:32;;;;;;;26.08;8.30;;;9.20;90.70;;;;;;5016271;28;20485;-62
2022/02/24 04:44:58;;;;;;;17.15;7.70;;;9.20;90.70;;;;;;5021124;28;20091;-62
2022/02/24 04:47:24;;;;;;;22.70;7.97;;;9.20;90.80;;;;;;5020987;28;20060;-62
2022/02/24 04:49:49;;;;;;;23.30;8.20;;;9.10;90.80;;;;;;5021120;28;20060;-60
2022/02/24 04:52:15;;;;;;;17.85;8.02;;;9.10;90.80;;;;;;5018229;28;20033;-60
2022/02/24 04:54:40;;;;;;;20.83;9.88;;;9.10;90.80;;;;;;5015562;28;20041;-62
2022/02/24 04:57:06;;;;;;;26.52;9.18;;;9.10;90.80;;;;;;5018969;28;20029;-62
2022/02/24 04:59:31;;;;;;;22.88;8.35;;;9.10;90.80;;;;;;5021251;28;20049;-62
2022/02/24 05:01:57;;;;;;;21.35;8.90;;;9.10;90.80;;;;;;5020471;28;20056;-63
2022/02/24 05:04:22;;;;;;;16.15;8.18;;;9.10;90.80;;;;;;5020759;28;20415;-61
2022/02/24 05:06:48;;;;;;;17.95;8.57;;;9.10;90.80;;;;;;5020317;28;20535;-60
2022/02/24 05:09:14;;;;;;;16.42;8.68;;;9.00;90.70;;;;;;5018389;28;20060;-62
2022/02/24 05:11:39;;;;;;;18.88;8.27;;;9.00;90.70;;;;;;5021427;28;20378;-61
2022/02/24 05:14:05;;;;;;;17.67;7.78;;;9.00;90.70;;;;;;5026779;28;20033;-61
2022/02/24 05:16:30;;;;;;;16.67;7.90;;;9.00;91.00;;;;;;5026873;28;20469;-63
2022/02/24 05:18:56;;;;;;;17.75;7.45;;;9.00;90.80;;;;;;5021626;28;20816;-61
2022/02/24 05:21:21;;;;;;;17.15;8.02;;;9.00;90.80;;;;;;5023127;28;20056;-60
2022/02/24 05:23:47;;;;;;;16.98;7.80;;;8.90;90.80;;;;;;5021924;28;21003;-60
2022/02/24 05:26:12;;;;;;;18.88;7.97;;;8.90;90.80;;;;;;5026222;28;20025;-59
2022/02/24 05:28:38;;;;;;;21.15;8.05;;;8.90;90.80;;;;;;5024123;28;20382;-60
2022/02/24 05:31:03;;;;;;;20.30;8.20;;;8.90;90.90;;;;;;5023658;28;20037;-61
2022/02/24 05:33:29;;;;;;;15.43;7.50;;;8.90;90.90;;;;;;5023771;28;20045;-59
2022/02/24 05:35:55;;;;;;;20.33;8.38;;;8.90;90.90;;;;;;5007311;28;20438;-59
2022/02/24 05:38:22;;;;;;;17.17;8.07;;;8.80;90.90;;;;;;5022012;28;20480;-62
2022/02/24 05:40:47;;;;;;;18.45;7.78;;;8.80;90.90;;;;;;5007441;28;20683;-60
2022/02/24 05:43:13;;;;;;;17.13;7.63;;;8.80;90.90;;;;;;5024716;28;20042;-59
2022/02/24 05:45:38;;;;;;;18.67;7.50;;;8.80;90.80;;;;;;5024286;28;20183;-61
2022/02/24 05:48:04;;;;;;;16.48;7.53;;;8.80;90.90;;;;;;5021862;28;20116;-61
2022/02/24 05:50:29;;;;;;;17.55;8.68;;;8.70;90.90;;;;;;5021332;28;20749;-62
2022/02/24 05:53:02;;;;;;;17.63;7.88;;;8.70;90.90;;;;;;5021102;28;20418;-60
2022/02/24 05:55:30;;;;;;;14.80;7.28;;;8.70;90.90;;;;;;5024180;28;20045;-59
2022/02/24 05:57:56;;;;;;;22.48;9.00;;;8.70;90.90;;;;;;5022237;28;20503;-62
2022/02/24 06:00:21;;;;;;;47.75;10.82;;;8.70;90.90;;;;;;5022643;28;20045;-60
2022/02/24 06:02:47;;;;;;;132.43;15.63;;;8.70;90.90;;;;;;5004967;28;20030;-59
2022/02/24 06:05:12;;;;;;;100.47;15.32;;;8.70;90.90;;;;;;5024132;28;20489;-60
2022/02/24 06:07:38;;;;;;;49.03;10.48;;;8.70;90.90;;;;;;5023282;28;20030;-60
2022/02/24 06:10:04;;;;;;;56.67;12.45;;;8.70;90.90;;;;;;5021859;28;20029;-62
2022/02/24 06:12:29;;;;;;;50.45;10.00;;;8.70;90.90;;;;;;5005104;28;20037;-60
2022/02/24 06:14:55;;;;;;;69.57;12.55;;;8.70;90.90;;;;;;5005439;28;20354;-59
2022/02/24 06:17:20;;;;;;;52.83;10.05;;;8.70;91.00;;;;;;5022603;28;20025;-59
2022/02/24 06:19:46;;;;;;;57.85;10.77;;;8.70;91.00;;;;;;5022379;28;20461;-62
2022/02/24 06:22:11;;;;;;;46.13;9.85;;;8.70;91.00;;;;;;5017049;28;20076;-62
2022/02/24 06:24:37;;;;;;;62.17;10.90;;;8.70;91.00;;;;;;5020954;28;20116;-59
2022/02/24 06:27:03;;;;;;;51.85;11.00;;;8.70;91.00;;;;;;5022820;28;20056;-63
2022/02/24 06:29:28;;;;;;;63.47;11.48;;;8.70;90.90;;;;;;5006762;28;20072;-61
2022/02/24 06:31:53;;;;;;;49.35;10.38;;;8.70;90.90;;;;;;5023054;28;20044;-62
2022/02/24 06:34:19;;;;;;;60.75;10.43;;;8.70;90.90;;;;;;5024823;28;20034;-60
2022/02/24 06:36:44;;;;;;;49.25;10.25;;;8.60;90.90;;;;;;5023690;28;20025;-59
2022/02/24 06:39:10;;;;;;;70.22;11.07;;;8.70;91.00;;;;;;5023100;28;20462;-60
2022/02/24 06:41:35;;;;;;;62.20;11.25;;;8.70;91.00;;;;;;5023797;28;20037;-62
2022/02/24 06:44:01;;;;;;;62.58;11.57;;;8.60;91.10;;;;;;5025635;28;20053;-59
2022/02/24 06:46:27;;;;;;;58.50;11.30;;;8.60;91.10;;;;;;5023556;28;20132;-60
2022/02/24 06:48:52;;;;;;;68.55;11.38;;;8.60;91.10;;;;;;5025552;28;20040;-59
2022/02/24 06:51:18;;;;;;;61.63;11.43;;;8.60;91.40;;;;;;5007255;28;20117;-60
2022/02/24 06:53:43;;;;;;;51.50;10.98;;;8.60;91.20;;;;;;5026057;28;20405;-62
2022/02/24 06:56:09;;;;;;;49.45;10.43;;;8.60;91.50;;;;;;5025687;28;20468;-62
2022/02/24 06:58:34;;;;;;;43.90;11.43;;;8.60;91.30;;;;;;5024807;28;20037;-61
2022/02/24 07:01:02;;;;;;;41.65;10.60;;;8.60;91.30;;;;;;5022115;28;20026;-60
2022/02/24 07:03:28;;;;;;;41.00;10.57;;;8.60;91.30;;;;;;5024593;28;20417;-60
2022/02/24 07:05:53;;;;;;;45.58;10.38;;;8.50;91.30;;;;;;5022264;28;20076;-63
2022/02/24 07:08:18;;;;;;;67.35;10.35;;;8.50;91.30;;;;;;5021951;28;20032;-60
2022/02/24 07:10:44;;;;;;;48.22;10.60;;;8.50;91.30;;;;;;5022983;28;20057;-63
2022/02/24 07:13:09;;;;;;;47.55;11.20;;;8.50;91.20;;;;;;5024165;28;20521;-62
2022/02/24 07:15:35;;;;;;;45.47;11.18;;;8.60;91.20;;;;;;5023733;28;20037;-62
2022/02/24 07:18:01;;;;;;;40.50;10.40;;;8.50;91.20;;;;;;5021813;28;20030;-61
2022/02/24 07:20:26;;;;;;;36.42;10.93;;;8.50;91.20;;;;;;5022853;28;20120;-63
2022/02/24 07:22:51;;;;;;;29.75;10.80;;;8.50;91.20;;;;;;5020686;28;20041;-60
2022/02/24 07:25:17;;;;;;;39.65;9.57;;;8.50;91.20;;;;;;5023577;28;20193;-61
2022/02/24 07:27:43;;;;;;;33.75;10.65;;;8.50;91.20;;;;;;5023466;28;20029;-62
2022/02/24 07:30:09;;;;;;;32.85;9.23;;;8.50;91.10;;;;;;5021794;28;20480;-59
2022/02/24 07:32:35;;;;;;;35.65;8.32;;;8.50;91.10;;;;;;5002603;28;20029;-59
2022/02/24 07:35:00;;;;;;;33.03;9.77;;;8.50;91.10;;;;;;5005863;28;20124;-61
2022/02/24 07:37:26;;;;;;;36.00;8.82;;;8.50;91.10;;;;;;5021624;28;20105;-63
2022/02/24 07:39:52;;;;;;;32.80;8.65;;;8.50;91.10;;;;;;5022040;28;20030;-60
2022/02/24 07:42:17;;;;;;;23.42;7.90;;;8.50;91.10;;;;;;5021202;28;20142;-59
2022/02/24 07:44:46;;;;;;;24.55;7.80;;;8.50;91.10;;;;;;5021968;28;20041;-62
2022/02/24 07:47:12;;;;;;;25.02;7.78;;;8.50;91.10;;;;;;5020105;28;20393;-60
2022/02/24 07:49:38;;;;;;;33.50;8.25;;;8.40;91.10;;;;;;5006164;28;20203;-60
2022/02/24 07:52:04;;;;;;;26.05;7.85;;;8.50;91.10;;;;;;5020994;28;20619;-59
2022/02/24 07:54:29;;;;;;;23.70;7.85;;;8.50;91.10;;;;;;5022739;28;20631;-62
2022/02/24 07:56:55;;;;;;;26.23;7.75;;;8.50;91.10;;;;;;5020366;28;20204;-63
2022/02/24 07:59:20;;;;;;;26.13;7.70;;;8.50;91.10;;;;;;5020309;28;20050;-61
2022/02/24 08:01:46;;;;;;;31.70;7.85;;;8.50;91.10;;;;;;5022102;28;20033;-61
2022/02/24 08:04:12;;;;;;;27.77;7.90;;;8.50;91.20;;;;;;5017816;28;20029;-62
2022/02/24 08:06:37;;;;;;;23.35;8.70;;;8.50;91.20;;;;;;5021437;28;20025;-60
2022/02/24 08:09:03;;;;;;;33.00;8.73;;;8.50;91.10;;;;;;5002816;28;20033;-61
2022/02/24 08:11:29;;;;;;;29.10;8.52;;;8.50;91.10;;;;;;5016698;28;20049;-59
2022/02/24 08:13:54;;;;;;;29.58;8.95;;;8.50;91.20;;;;;;5021622;28;20021;-59
2022/02/24 08:16:20;;;;;;;36.42;8.70;;;8.50;91.20;;;;;;5018598;28;20124;-62
2022/02/24 08:18:45;;;;;;;39.58;7.65;;;8.70;91.30;;;;;;5021287;28;20048;-61
2022/02/24 08:21:11;;;;;;;58.13;10.32;;;8.50;91.30;;;;;;5019635;28;20057;-63
2022/02/24 08:23:36;;;;;;;56.03;9.90;;;8.50;91.20;;;;;;5000546;28;20037;-61
2022/02/24 08:26:02;;;;;;;32.60;8.98;;;8.60;91.30;;;;;;5017699;28;20028;-59
2022/02/24 08:28:27;;;;;;;43.17;9.45;;;8.60;91.20;;;;;;5019219;28;20112;-60
2022/02/24 08:30:53;;;;;;;34.92;7.78;;;8.60;91.30;;;;;;5021078;28;20417;-60
2022/02/24 08:33:19;;;;;;;40.60;8.60;;;8.60;91.30;;;;;;5020902;28;20030;-61
2022/02/24 08:35:44;;;;;;;46.38;8.70;;;8.60;91.30;;;;;;5018023;28;20489;-62
2022/02/24 08:38:10;;;;;;;46.40;9.60;;;8.60;91.40;;;;;;5017539;28;20042;-66
2022/02/24 08:40:35;;;;;;;27.35;8.10;;;8.60;91.50;;;;;;5016234;28;20473;-59
2022/02/24 08:43:01;;;;;;;49.05;8.98;;;8.60;91.50;;;;;;5020504;28;20477;-62
2022/02/24 08:45:27;;;;;;;53.88;8.95;;;8.60;91.50;;;;;;5024775;28;20037;-62
2022/02/24 08:47:52;;;;;;;47.08;8.90;;;8.60;91.60;;;;;;5010818;28;20033;-59
2022/02/24 08:50:18;;;;;;;38.55;8.80;;;8.60;91.60;;;;;;5025960;28;20029;-61
2022/02/24 08:52:44;;;;;;;42.50;8.02;;;8.60;91.60;;;;;;5025804;28;20041;-61
2022/02/24 08:55:10;;;;;;;30.20;7.97;;;8.60;91.50;;;;;;5027555;28;20268;-62
2022/02/24 08:57:35;;;;;;;37.25;7.68;;;8.60;91.50;;;;;;5027069;28;20037;-62
2022/02/24 09:00:01;;;;;;;37.70;8.57;;;8.70;91.60;;;;;;5026510;28;20025;-60
2022/02/24 09:02:27;;;;;;;32.83;8.27;;;8.70;91.50;;;;;;5019840;28;20386;-62
2022/02/24 09:04:53;;;;;;;42.28;8.40;;;8.70;91.50;;;;;;5011779;28;20033;-60
2022/02/24 09:07:18;;;;;;;28.35;7.68;;;8.70;91.50;;;;;;5013143;28;20562;-61
2022/02/24 09:09:44;;;;;;;33.92;6.80;;;8.60;91.50;;;;;;5025750;28;20037;-61
2022/02/24 09:12:09;;;;;;;34.13;7.88;;;8.60;91.50;;;;;;5025263;28;20116;-61
2022/02/24 09:14:35;;;;;;;18.50;6.97;;;8.60;91.50;;;;;;5024798;28;20060;-60
2022/02/24 09:17:02;;;;;;;22.38;7.18;;;8.60;91.50;;;;;;5025395;28;20145;-60
2022/02/24 09:19:27;;;;;;;29.67;7.20;;;8.70;91.50;;;;;;5027230;28;20025;-63
2022/02/24 09:21:55;;;;;;;26.92;7.47;;;8.70;91.70;;;;;;5006899;28;20497;-62
2022/02/24 09:24:21;;;;;;;39.53;8.10;;;8.70;91.60;;;;;;5024372;28;20146;-61
2022/02/24 09:26:47;;;;;;;81.88;10.57;;;8.60;91.70;;;;;;5006754;28;20087;-63
2022/02/24 09:29:14;;;;;;;43.55;8.57;;;8.70;91.70;;;;;;5023113;28;20030;-62
2022/02/24 09:31:39;;;;;;;36.20;8.93;;;8.70;91.60;;;;;;5008291;28;20071;-62
2022/02/24 09:34:05;;;;;;;36.33;6.72;;;8.80;91.70;;;;;;5011149;28;20041;-60
2022/02/24 09:36:31;;;;;;;48.35;8.10;;;8.70;91.60;;;;;;5027917;28;20319;-62
2022/02/24 09:38:56;;;;;;;39.42;9.00;;;8.80;91.60;;;;;;5028371;28;20459;-61
2022/02/24 09:41:23;;;;;;;34.45;8.30;;;8.80;91.70;;;;;;5025256;28;20095;-62
2022/02/24 09:43:49;;;;;;;51.47;8.52;;;8.80;91.70;;;;;;5017510;28;20555;-62
2022/02/24 09:46:15;;;;;;;44.72;8.98;;;8.80;91.70;;;;;;5022052;28;20105;-62
2022/02/24 09:48:45;;;;;;;45.53;8.85;;;8.80;91.60;;;;;;5028057;28;20376;-60
2022/02/24 09:51:15;;;;;;;62.25;10.27;;;8.90;91.60;;;;;;5027824;28;20154;-63
2022/02/24 09:53:41;;;;;;;34.45;8.18;;;8.90;91.60;;;;;;5025489;28;20030;-60
2022/02/24 09:56:12;;;;;;;48.53;9.63;;;8.90;91.90;;;;;;5009185;28;20039;-60
2022/02/24 09:58:38;;;;;;;34.75;7.38;;;9.00;91.60;;;;;;5004418;28;20188;-62
2022/02/24 10:01:03;;;;;;;52.67;9.07;;;8.90;91.60;;;;;;5020778;28;20112;-61
2022/02/24 10:03:40;;;;;;;46.25;7.97;;;9.00;91.60;;;;;;5023849;28;20632;-60
2022/02/24 10:06:06;;;;;;;44.00;10.25;;;9.00;91.60;;;;;;5022270;28;20053;-62
2022/02/24 10:08:33;;;;;;;30.48;8.30;;;9.00;91.60;;;;;;5020183;28;20115;-62
2022/02/24 10:11:00;;;;;;;40.13;9.27;;;9.10;91.50;;;;;;5020159;28;20053;-61
2022/02/24 10:13:26;;;;;;;33.97;8.45;;;9.10;91.60;;;;;;5023090;28;20329;-63
2022/02/24 10:15:57;;;;;;;30.65;7.88;;;9.10;91.60;;;;;;5022090;28;20079;-60
2022/02/24 10:18:24;;;;;;;28.02;7.32;;;9.10;91.60;;;;;;5021377;28;20072;-62
2022/02/24 10:20:58;;;;;;;31.98;8.23;;;9.10;91.60;;;;;;5020638;28;20113;-62
2022/02/24 10:23:34;;;;;;;26.92;7.18;;;9.10;91.60;;;;;;5020226;28;20374;-62
2022/02/24 10:26:02;;;;;;;31.92;7.38;;;9.20;91.60;;;;;;5005125;28;20497;-60
2022/02/24 10:28:50;;;;;;;32.65;7.40;;;9.20;91.60;;;;;;5020344;28;20132;-62
2022/02/24 10:31:24;;;;;;;26.88;6.65;;;9.20;91.60;;;;;;5021294;28;20400;-60
2022/02/24 10:34:17;;;;;;;30.67;7.45;;;9.20;91.70;;;;;;5020554;28;20061;-62
2022/02/24 10:36:43;;;;;;;27.83;6.82;;;9.30;91.60;;;;;;5018149;28;20504;-60
2022/02/24 10:39:10;;;;;;;37.00;7.32;;;9.30;91.60;;;;;;5021522;28;20064;-61
2022/02/24 10:41:40;;;;;;;21.20;5.75;;;9.30;91.60;;;;;;5003204;28;20465;-61
2022/02/24 10:44:20;;;;;;;25.17;6.78;;;9.30;91.50;;;;;;5023430;28;20181;-63
2022/02/24 10:47:04;;;;;;;17.58;5.15;;;9.30;91.50;;;;;;5002505;28;20029;-61
2022/02/24 10:49:41;;;;;;;17.60;4.80;;;9.40;91.30;;;;;;5018181;28;20766;-63
2022/02/24 10:52:20;;;;;;;13.77;4.05;;;9.30;91.10;;;;;;5018880;28;20037;-61
2022/02/24 10:55:05;;;;;;;37.92;6.32;;;9.40;91.10;;;;;;5004888;28;20068;-60
2022/02/24 10:57:30;;;;;;;60.85;9.45;;;9.40;91.20;;;;;;5023120;28;20176;-62
2022/02/24 10:59:56;;;;;;;41.03;7.88;;;9.40;91.30;;;;;;5020517;28;20522;-63
2022/02/24 11:02:22;;;;;;;49.30;8.10;;;9.50;91.40;;;;;;5018807;28;20053;-60
2022/02/24 11:04:48;;;;;;;51.40;8.27;;;9.50;91.20;;;;;;5021126;28;20052;-61
2022/02/24 11:07:14;;;;;;;35.97;6.82;;;9.60;91.40;;;;;;5020993;28;20108;-61
2022/02/24 11:09:41;;;;;;;36.03;6.30;;;9.60;91.00;;;;;;5019708;28;20421;-61
2022/02/24 11:12:10;;;;;;;32.85;6.10;;;9.60;91.10;;;;;;4997960;28;20128;-63
2022/02/24 11:14:36;;;;;;;45.90;6.65;;;9.60;90.90;;;;;;5019336;28;20041;-63
2022/02/24 11:17:06;;;;;;;30.67;5.65;;;9.70;90.90;;;;;;5020377;28;20022;-62
2022/02/24 11:19:32;;;;;;;31.67;4.97;;;9.70;90.80;;;;;;5021212;28;20514;-60
2022/02/24 11:21:59;;;;;;;34.08;6.38;;;9.70;90.50;;;;;;5020934;28;20129;-60
2022/02/24 11:24:25;;;;;;;39.40;5.90;;;9.80;90.50;;;;;;5018403;28;20096;-60
2022/02/24 11:27:13;;;;;;;35.63;6.60;;;9.80;90.40;;;;;;5018820;28;20038;-61
2022/02/24 11:29:54;;;;;;;32.45;6.68;;;10.10;90.40;;;;;;5019057;28;20486;-61
2022/02/24 11:32:22;;;;;;;41.83;6.05;;;9.90;90.30;;;;;;5018628;28;20037;-62
2022/02/24 11:34:58;;;;;;;33.88;5.63;;;9.90;90.20;;;;;;5001969;28;20666;-61
2022/02/24 11:37:28;;;;;;;48.22;6.60;;;9.90;90.10;;;;;;5002226;28;20034;-64
2022/02/24 11:40:17;;;;;;;30.52;5.47;;;10.00;90.00;;;;;;5019566;28;20124;-61
2022/02/24 11:42:43;;;;;;;44.95;5.95;;;10.00;90.00;;;;;;5013087;28;20056;-63
2022/02/24 11:45:29;;;;;;;37.85;6.22;;;10.00;89.90;;;;;;5017314;28;20303;-60
2022/02/24 11:48:05;;;;;;;37.60;7.03;;;10.00;89.80;;;;;;5012385;28;20068;-62
2022/02/24 11:50:31;;;;;;;;;;;10.00;89.60;;;;;;5018009;28;20034;-61
2022/02/24 11:52:56;;;;;;;;;;;10.00;89.50;;;;;;5019628;28;20043;-59
2022/02/24 11:55:45;;;;;;;42.22;5.63;;;10.10;89.20;;;;;;5005727;28;20015;-62
2022/02/24 11:58:30;;;;;;;71.43;9.25;;;10.10;88.80;;;;;;5020633;28;20044;-61
2022/02/24 12:01:12;;;;;;;94.00;12.27;;;10.10;88.50;;;;;;5021085;28;20075;-61
2022/02/24 12:03:44;;;;;;;73.90;7.97;;;10.10;88.30;;;;;;5018145;28;20104;-60
2022/02/24 12:06:13;;;;;;;38.92;5.32;;;10.20;88.10;;;;;;5017451;28;20049;-59
2022/02/24 12:09:03;;;;;;;50.97;7.07;;;10.20;87.50;;;;;;5017674;28;20637;-61
2022/02/24 12:11:30;;;;;;;91.28;9.85;;;10.30;87.70;;;;;;5018939;28;20033;-60
2022/02/24 12:13:56;;;;;;;106.43;11.90;;;10.30;87.30;;;;;;5021170;28;20021;-59
2022/02/24 12:16:23;;;;;;;46.65;6.63;;;10.40;87.30;;;;;;5018990;28;20400;-63
2022/02/24 12:18:50;;;;;;;84.57;9.23;;;10.40;87.80;;;;;;5018935;28;20481;-62
2022/02/24 12:21:33;;;;;;;51.30;7.45;;;10.50;86.70;;;;;;5017908;28;20041;-62
2022/02/24 12:24:00;;;;;;;30.33;5.03;;;10.50;86.40;;;;;;5018046;28;20465;-63
2022/02/24 12:26:46;;;;;;;31.88;5.63;;;10.60;85.60;;;;;;5022512;28;20025;-60
2022/02/24 12:29:37;;;;;;;79.13;8.13;;;10.60;85.60;;;;;;5020097;28;20028;-63
2022/02/24 12:32:04;;;;;;;65.75;8.75;;;10.70;85.80;;;;;;5020869;28;20021;-61
2022/02/24 12:34:29;;;;;;;35.70;5.38;;;10.70;85.70;;;;;;5002326;28;20059;-60
2022/02/24 12:37:10;;;;;;;36.33;5.40;;;10.80;85.20;;;;;;5003373;28;20485;-62
2022/02/24 12:39:39;;;;;;;55.30;6.85;;;10.80;84.80;;;;;;5018326;28;20033;-60